sensor_id;sensor_type;location;lat;lon;timestamp;temperature;humidity
54082;DHT22;39986;50.770;0.266;2022-11-27T00:00:39;10.00;99.90
54082;DHT22;39986;50.770;0.266;2022-11-27T00:03:04;10.00;99.90
54082;DHT22;39986;50.770;0.266;2022-11-27T00:05:30;10.00;99.90
54082;DHT22;39986;50.770;0.266;2022-11-27T00:07:55;10.00;99.90
54082;DHT22;39986;50.770;0.266;2022-11-27T00:10:21;10.10;99.90
54082;DHT22;39986;50.770;0.266;2022-11-27T00:12:46;10.20;99.90
54082;DHT22;39986;50.770;0.266;2022-11-27T00:15:12;10.10;99.90
54082;DHT22;39986;50.770;0.266;2022-11-27T00:17:39;10.10;99.90
54082;DHT22;39986;50.770;0.266;2022-11-27T00:20:05;10.10;99.90
54082;DHT22;39986;50.770;0.266;2022-11-27T00:22:31;10.10;99.90
54082;DHT22;39986;50.770;0.266;2022-11-27T00:24:56;10.20;99.90
54082;DHT22;39986;50.770;0.266;2022-11-27T00:27:22;10.20;99.90
54082;DHT22;39986;50.770;0.266;2022-11-27T00:29:47;10.40;99.90
54082;DHT22;39986;50.770;0.266;2022-11-27T00:32:13;10.40;99.90
54082;DHT22;39986;50.770;0.266;2022-11-27T00:34:38;10.50;99.90
54082;DHT22;39986;50.770;0.266;2022-11-27T00:37:04;11.30;99.90
54082;DHT22;39986;50.770;0.266;2022-11-27T00:39:31;10.40;99.90
54082;DHT22;39986;50.770;0.266;2022-11-27T00:41:57;10.40;99.90
54082;DHT22;39986;50.770;0.266;2022-11-27T00:44:22;10.50;99.90
54082;DHT22;39986;50.770;0.266;2022-11-27T00:46:48;10.50;99.90
54082;DHT22;39986;50.770;0.266;2022-11-27T00:49:14;12.10;99.90
54082;DHT22;39986;50.770;0.266;2022-11-27T00:51:40;10.50;99.90
54082;DHT22;39986;50.770;0.266;2022-11-27T00:54:05;10.40;99.90
54082;DHT22;39986;50.770;0.266;2022-11-27T00:56:33;10.50;99.90
54082;DHT22;39986;50.770;0.266;2022-11-27T00:58:59;10.50;99.90
54082;DHT22;39986;50.770;0.266;2022-11-27T01:01:26;10.60;99.90
54082;DHT22;39986;50.770;0.266;2022-11-27T01:03:53;10.50;99.90
54082;DHT22;39986;50.770;0.266;2022-11-27T01:06:19;10.60;99.90
54082;DHT22;39986;50.770;0.266;2022-11-27T01:08:45;10.60;99.90
54082;DHT22;39986;50.770;0.266;2022-11-27T01:11:12;10.60;99.90
54082;DHT22;39986;50.770;0.266;2022-11-27T01:16:30;10.60;99.90
54082;DHT22;39986;50.770;0.266;2022-11-27T01:18:56;10.50;99.90
54082;DHT22;39986;50.770;0.266;2022-11-27T01:21:22;10.60;99.90
54082;DHT22;39986;50.770;0.266;2022-11-27T01:23:48;10.50;99.90
54082;DHT22;39986;50.770;0.266;2022-11-27T01:26:15;10.50;99.90
54082;DHT22;39986;50.770;0.266;2022-11-27T01:28:41;10.60;99.90
54082;DHT22;39986;50.770;0.266;2022-11-27T01:31:17;10.60;99.90
54082;DHT22;39986;50.770;0.266;2022-11-27T01:33:43;10.60;99.90
54082;DHT22;39986;50.770;0.266;2022-11-27T01:36:10;10.60;99.90
54082;DHT22;39986;50.770;0.266;2022-11-27T01:38:36;10.70;99.90
54082;DHT22;39986;50.770;0.266;2022-11-27T01:41:03;10.70;99.90
54082;DHT22;39986;50.770;0.266;2022-11-27T01:48:52;10.70;99.90
54082;DHT22;39986;50.770;0.266;2022-11-27T01:51:18;10.70;99.90
54082;DHT22;39986;50.770;0.266;2022-11-27T01:53:45;10.70;99.90
54082;DHT22;39986;50.770;0.266;2022-11-27T01:56:10;10.70;99.90
54082;DHT22;39986;50.770;0.266;2022-11-27T01:58:36;10.80;99.90
54082;DHT22;39986;50.770;0.266;2022-11-27T02:01:03;10.80;99.90
54082;DHT22;39986;50.770;0.266;2022-11-27T02:03:29;10.80;99.90
54082;DHT22;39986;50.770;0.266;2022-11-27T02:05:54;10.80;99.90
54082;DHT22;39986;50.770;0.266;2022-11-27T02:08:20;10.80;99.90
54082;DHT22;39986;50.770;0.266;2022-11-27T02:13:36;10.80;99.90
54082;DHT22;39986;50.770;0.266;2022-11-27T02:19:06;10.90;99.90
54082;DHT22;39986;50.770;0.266;2022-11-27T02:21:48;10.80;99.90
54082;DHT22;39986;50.770;0.266;2022-11-27T02:29:33;11.00;99.90
54082;DHT22;39986;50.770;0.266;2022-11-27T02:37:15;10.90;99.90
54082;DHT22;39986;50.770;0.266;2022-11-27T02:39:58;10.90;99.90
54082;DHT22;39986;50.770;0.266;2022-11-27T02:42:26;11.00;99.90
54082;DHT22;39986;50.770;0.266;2022-11-27T02:44:56;11.00;99.90
54082;DHT22;39986;50.770;0.266;2022-11-27T02:47:23;11.00;99.90
54082;DHT22;39986;50.770;0.266;2022-11-27T02:49:48;10.90;99.90
54082;DHT22;39986;50.770;0.266;2022-11-27T02:52:15;10.90;99.90
54082;DHT22;39986;50.770;0.266;2022-11-27T02:54:42;11.00;99.90
54082;DHT22;39986;50.770;0.266;2022-11-27T02:57:08;11.00;99.90
54082;DHT22;39986;50.770;0.266;2022-11-27T02:59:34;11.00;99.90
54082;DHT22;39986;50.770;0.266;2022-11-27T03:02:03;11.00;99.90
54082;DHT22;39986;50.770;0.266;2022-11-27T03:04:34;11.00;99.90
54082;DHT22;39986;50.770;0.266;2022-11-27T03:07:06;11.00;99.90
54082;DHT22;39986;50.770;0.266;2022-11-27T03:09:33;11.00;99.90
54082;DHT22;39986;50.770;0.266;2022-11-27T03:12:00;11.00;99.90
54082;DHT22;39986;50.770;0.266;2022-11-27T03:14:26;11.00;99.90
54082;DHT22;39986;50.770;0.266;2022-11-27T03:17:10;11.00;99.90
54082;DHT22;39986;50.770;0.266;2022-11-27T03:19:53;11.00;99.90
54082;DHT22;39986;50.770;0.266;2022-11-27T03:22:20;11.00;99.90
54082;DHT22;39986;50.770;0.266;2022-11-27T03:24:46;11.20;99.90
54082;DHT22;39986;50.770;0.266;2022-11-27T03:27:14;11.00;99.90
54082;DHT22;39986;50.770;0.266;2022-11-27T03:29:55;11.10;99.90
54082;DHT22;39986;50.770;0.266;2022-11-27T03:32:22;11.10;99.90
54082;DHT22;39986;50.770;0.266;2022-11-27T03:34:48;11.10;99.90
54082;DHT22;39986;50.770;0.266;2022-11-27T03:37:13;11.10;99.90
54082;DHT22;39986;50.770;0.266;2022-11-27T03:39:39;11.10;99.90
54082;DHT22;39986;50.770;0.266;2022-11-27T03:44:34;11.00;99.90
54082;DHT22;39986;50.770;0.266;2022-11-27T03:49:50;11.10;99.90
54082;DHT22;39986;50.770;0.266;2022-11-27T03:57:16;11.10;99.90
54082;DHT22;39986;50.770;0.266;2022-11-27T03:59:42;11.10;99.90
54082;DHT22;39986;50.770;0.266;2022-11-27T04:02:11;11.10;99.90
54082;DHT22;39986;50.770;0.266;2022-11-27T04:04:36;11.20;99.90
54082;DHT22;39986;50.770;0.266;2022-11-27T04:07:02;11.10;99.90
54082;DHT22;39986;50.770;0.266;2022-11-27T04:09:27;11.20;99.90
54082;DHT22;39986;50.770;0.266;2022-11-27T04:11:53;11.10;99.90
54082;DHT22;39986;50.770;0.266;2022-11-27T04:14:19;11.20;99.90
54082;DHT22;39986;50.770;0.266;2022-11-27T04:16:49;11.20;99.90
54082;DHT22;39986;50.770;0.266;2022-11-27T04:19:15;11.20;99.90
54082;DHT22;39986;50.770;0.266;2022-11-27T04:21:40;11.20;99.90
54082;DHT22;39986;50.770;0.266;2022-11-27T04:24:06;11.30;99.90
54082;DHT22;39986;50.770;0.266;2022-11-27T04:26:31;11.30;99.90
54082;DHT22;39986;50.770;0.266;2022-11-27T04:28:57;11.30;99.90
54082;DHT22;39986;50.770;0.266;2022-11-27T04:31:22;11.40;99.90
54082;DHT22;39986;50.770;0.266;2022-11-27T04:33:48;11.40;99.90
54082;DHT22;39986;50.770;0.266;2022-11-27T04:36:13;11.40;99.90
54082;DHT22;39986;50.770;0.266;2022-11-27T04:38:39;11.40;99.90
54082;DHT22;39986;50.770;0.266;2022-11-27T04:41:04;11.50;99.90
54082;DHT22;39986;50.770;0.266;2022-11-27T04:43:30;11.40;99.90
54082;DHT22;39986;50.770;0.266;2022-11-27T04:45:57;11.50;99.90
54082;DHT22;39986;50.770;0.266;2022-11-27T04:48:22;11.40;99.90
54082;DHT22;39986;50.770;0.266;2022-11-27T04:50:48;11.70;99.90
54082;DHT22;39986;50.770;0.266;2022-11-27T04:53:13;11.50;99.90
54082;DHT22;39986;50.770;0.266;2022-11-27T04:55:39;11.50;99.90
54082;DHT22;39986;50.770;0.266;2022-11-27T04:58:05;11.50;99.90
54082;DHT22;39986;50.770;0.266;2022-11-27T05:00:30;11.50;99.90
54082;DHT22;39986;50.770;0.266;2022-11-27T05:02:56;11.50;99.90
54082;DHT22;39986;50.770;0.266;2022-11-27T05:05:21;11.50;99.90
54082;DHT22;39986;50.770;0.266;2022-11-27T05:07:47;11.50;99.90
54082;DHT22;39986;50.770;0.266;2022-11-27T05:10:12;11.60;99.90
54082;DHT22;39986;50.770;0.266;2022-11-27T05:12:38;11.50;99.90
54082;DHT22;39986;50.770;0.266;2022-11-27T05:15:03;11.60;99.90
54082;DHT22;39986;50.770;0.266;2022-11-27T05:17:29;11.60;99.90
54082;DHT22;39986;50.770;0.266;2022-11-27T05:19:54;11.60;99.90
54082;DHT22;39986;50.770;0.266;2022-11-27T05:22:20;11.60;99.90
54082;DHT22;39986;50.770;0.266;2022-11-27T05:24:45;11.60;99.90
54082;DHT22;39986;50.770;0.266;2022-11-27T05:27:11;11.60;99.90
54082;DHT22;39986;50.770;0.266;2022-11-27T05:29:36;11.70;99.90
54082;DHT22;39986;50.770;0.266;2022-11-27T05:32:04;11.60;99.90
54082;DHT22;39986;50.770;0.266;2022-11-27T05:34:29;11.70;99.90
54082;DHT22;39986;50.770;0.266;2022-11-27T05:36:55;11.70;99.90
54082;DHT22;39986;50.770;0.266;2022-11-27T05:39:20;11.70;99.90
54082;DHT22;39986;50.770;0.266;2022-11-27T05:41:46;11.70;99.90
54082;DHT22;39986;50.770;0.266;2022-11-27T05:44:12;11.70;99.90
54082;DHT22;39986;50.770;0.266;2022-11-27T05:46:38;11.70;99.90
54082;DHT22;39986;50.770;0.266;2022-11-27T05:49:04;11.70;99.90
54082;DHT22;39986;50.770;0.266;2022-11-27T05:51:30;12.00;99.90
54082;DHT22;39986;50.770;0.266;2022-11-27T05:53:56;11.70;99.90
54082;DHT22;39986;50.770;0.266;2022-11-27T05:56:21;11.70;99.90
54082;DHT22;39986;50.770;0.266;2022-11-27T05:58:47;11.80;99.90
54082;DHT22;39986;50.770;0.266;2022-11-27T06:01:13;11.70;99.90
54082;DHT22;39986;50.770;0.266;2022-11-27T06:03:39;11.80;99.90
54082;DHT22;39986;50.770;0.266;2022-11-27T06:06:08;11.80;99.90
54082;DHT22;39986;50.770;0.266;2022-11-27T06:08:35;11.80;99.90
54082;DHT22;39986;50.770;0.266;2022-11-27T06:11:04;11.80;99.90
54082;DHT22;39986;50.770;0.266;2022-11-27T06:13:29;11.80;99.90
54082;DHT22;39986;50.770;0.266;2022-11-27T06:15:55;11.80;99.90
54082;DHT22;39986;50.770;0.266;2022-11-27T06:18:20;11.80;99.90
54082;DHT22;39986;50.770;0.266;2022-11-27T06:20:47;11.80;99.90
54082;DHT22;39986;50.770;0.266;2022-11-27T06:23:12;11.80;99.90
54082;DHT22;39986;50.770;0.266;2022-11-27T06:25:38;11.80;99.90
54082;DHT22;39986;50.770;0.266;2022-11-27T06:28:03;11.90;99.90
54082;DHT22;39986;50.770;0.266;2022-11-27T06:30:29;11.90;99.90
54082;DHT22;39986;50.770;0.266;2022-11-27T06:32:54;11.90;99.90
54082;DHT22;39986;50.770;0.266;2022-11-27T06:35:20;12.70;99.90
54082;DHT22;39986;50.770;0.266;2022-11-27T06:37:45;12.00;99.90
54082;DHT22;39986;50.770;0.266;2022-11-27T06:40:11;11.90;99.90
54082;DHT22;39986;50.770;0.266;2022-11-27T06:42:36;12.00;99.90
54082;DHT22;39986;50.770;0.266;2022-11-27T06:45:02;12.00;99.90
54082;DHT22;39986;50.770;0.266;2022-11-27T06:47:27;12.00;99.90
54082;DHT22;39986;50.770;0.266;2022-11-27T06:49:53;12.00;99.90
54082;DHT22;39986;50.770;0.266;2022-11-27T06:52:43;12.00;99.90
54082;DHT22;39986;50.770;0.266;2022-11-27T06:55:09;12.00;99.90
54082;DHT22;39986;50.770;0.266;2022-11-27T06:57:34;12.00;99.90
54082;DHT22;39986;50.770;0.266;2022-11-27T07:00:00;12.00;99.90
54082;DHT22;39986;50.770;0.266;2022-11-27T07:02:25;12.00;99.90
54082;DHT22;39986;50.770;0.266;2022-11-27T07:04:51;12.10;99.90
54082;DHT22;39986;50.770;0.266;2022-11-27T07:07:16;12.10;99.90
54082;DHT22;39986;50.770;0.266;2022-11-27T07:09:42;12.10;99.90
54082;DHT22;39986;50.770;0.266;2022-11-27T07:12:07;12.10;99.90
54082;DHT22;39986;50.770;0.266;2022-11-27T07:14:33;12.20;99.90
54082;DHT22;39986;50.770;0.266;2022-11-27T07:16:59;12.10;99.90
54082;DHT22;39986;50.770;0.266;2022-11-27T07:19:25;12.20;99.90
54082;DHT22;39986;50.770;0.266;2022-11-27T07:21:50;12.20;99.90
54082;DHT22;39986;50.770;0.266;2022-11-27T07:24:16;12.20;99.90
54082;DHT22;39986;50.770;0.266;2022-11-27T07:26:41;12.30;99.90
54082;DHT22;39986;50.770;0.266;2022-11-27T07:29:07;12.20;99.90
54082;DHT22;39986;50.770;0.266;2022-11-27T07:31:32;12.30;99.90
54082;DHT22;39986;50.770;0.266;2022-11-27T07:33:58;12.30;99.90
54082;DHT22;39986;50.770;0.266;2022-11-27T07:36:27;12.40;99.90
54082;DHT22;39986;50.770;0.266;2022-11-27T07:38:53;12.30;99.90
54082;DHT22;39986;50.770;0.266;2022-11-27T07:41:19;12.40;99.90
54082;DHT22;39986;50.770;0.266;2022-11-27T07:43:44;12.40;99.90
54082;DHT22;39986;50.770;0.266;2022-11-27T07:46:17;12.30;99.90
54082;DHT22;39986;50.770;0.266;2022-11-27T07:48:43;12.30;99.90
54082;DHT22;39986;50.770;0.266;2022-11-27T07:51:09;12.40;99.90
54082;DHT22;39986;50.770;0.266;2022-11-27T07:53:35;12.30;99.90
54082;DHT22;39986;50.770;0.266;2022-11-27T07:56:01;12.40;99.90
54082;DHT22;39986;50.770;0.266;2022-11-27T07:58:29;12.40;99.90
54082;DHT22;39986;50.770;0.266;2022-11-27T08:00:54;12.90;99.90
54082;DHT22;39986;50.770;0.266;2022-11-27T08:03:20;12.40;99.90
54082;DHT22;39986;50.770;0.266;2022-11-27T08:05:46;12.50;99.90
54082;DHT22;39986;50.770;0.266;2022-11-27T08:08:12;12.40;99.90
54082;DHT22;39986;50.770;0.266;2022-11-27T08:10:37;12.50;99.90
54082;DHT22;39986;50.770;0.266;2022-11-27T08:13:03;12.50;99.90
54082;DHT22;39986;50.770;0.266;2022-11-27T08:15:28;12.50;99.90
54082;DHT22;39986;50.770;0.266;2022-11-27T08:17:54;12.60;99.90
54082;DHT22;39986;50.770;0.266;2022-11-27T08:20:20;12.60;99.90
54082;DHT22;39986;50.770;0.266;2022-11-27T08:22:45;12.60;99.90
54082;DHT22;39986;50.770;0.266;2022-11-27T08:25:11;12.60;99.90
54082;DHT22;39986;50.770;0.266;2022-11-27T08:27:37;12.70;99.90
54082;DHT22;39986;50.770;0.266;2022-11-27T08:30:06;12.60;99.90
54082;DHT22;39986;50.770;0.266;2022-11-27T08:32:32;12.60;99.90
54082;DHT22;39986;50.770;0.266;2022-11-27T08:34:57;12.60;99.90
54082;DHT22;39986;50.770;0.266;2022-11-27T08:37:23;12.70;99.90
54082;DHT22;39986;50.770;0.266;2022-11-27T08:39:48;12.70;99.90
54082;DHT22;39986;50.770;0.266;2022-11-27T08:42:14;12.70;99.90
54082;DHT22;39986;50.770;0.266;2022-11-27T08:44:39;12.70;99.90
54082;DHT22;39986;50.770;0.266;2022-11-27T08:47:05;12.80;99.90
54082;DHT22;39986;50.770;0.266;2022-11-27T08:49:30;12.80;99.90
54082;DHT22;39986;50.770;0.266;2022-11-27T08:51:56;12.70;99.90
54082;DHT22;39986;50.770;0.266;2022-11-27T08:54:21;12.80;99.90
54082;DHT22;39986;50.770;0.266;2022-11-27T08:56:47;12.80;99.90
54082;DHT22;39986;50.770;0.266;2022-11-27T08:59:13;12.80;99.90
54082;DHT22;39986;50.770;0.266;2022-11-27T09:01:39;12.80;99.90
54082;DHT22;39986;50.770;0.266;2022-11-27T09:04:04;12.80;99.90
54082;DHT22;39986;50.770;0.266;2022-11-27T09:06:30;12.90;99.90
54082;DHT22;39986;50.770;0.266;2022-11-27T09:08:59;12.90;99.90
54082;DHT22;39986;50.770;0.266;2022-11-27T09:11:25;12.90;99.90
54082;DHT22;39986;50.770;0.266;2022-11-27T09:13:52;12.90;99.90
54082;DHT22;39986;50.770;0.266;2022-11-27T09:16:18;12.90;99.90
54082;DHT22;39986;50.770;0.266;2022-11-27T09:18:44;13.00;99.90
54082;DHT22;39986;50.770;0.266;2022-11-27T09:21:11;12.90;99.90
54082;DHT22;39986;50.770;0.266;2022-11-27T09:23:36;13.20;99.90
54082;DHT22;39986;50.770;0.266;2022-11-27T09:26:03;13.00;99.90
54082;DHT22;39986;50.770;0.266;2022-11-27T09:28:28;13.00;99.90
54082;DHT22;39986;50.770;0.266;2022-11-27T09:30:55;13.10;99.90
54082;DHT22;39986;50.770;0.266;2022-11-27T09:33:21;13.00;99.90
54082;DHT22;39986;50.770;0.266;2022-11-27T09:35:47;13.00;99.90
54082;DHT22;39986;50.770;0.266;2022-11-27T09:38:13;13.00;99.90
54082;DHT22;39986;50.770;0.266;2022-11-27T09:40:42;13.00;99.90
54082;DHT22;39986;50.770;0.266;2022-11-27T09:43:09;13.20;99.90
54082;DHT22;39986;50.770;0.266;2022-11-27T09:45:42;13.00;99.90
54082;DHT22;39986;50.770;0.266;2022-11-27T09:48:10;13.00;99.90
54082;DHT22;39986;50.770;0.266;2022-11-27T09:50:38;13.00;99.90
54082;DHT22;39986;50.770;0.266;2022-11-27T09:53:13;13.00;99.90
54082;DHT22;39986;50.770;0.266;2022-11-27T09:55:45;13.10;99.90
54082;DHT22;39986;50.770;0.266;2022-11-27T09:58:17;13.10;99.90
54082;DHT22;39986;50.770;0.266;2022-11-27T10:00:45;13.10;99.90
54082;DHT22;39986;50.770;0.266;2022-11-27T10:03:14;13.00;99.90
54082;DHT22;39986;50.770;0.266;2022-11-27T10:15:55;13.10;99.90
54082;DHT22;39986;50.770;0.266;2022-11-27T10:21:06;13.10;99.90
54082;DHT22;39986;50.770;0.266;2022-11-27T10:23:42;13.20;99.90
54082;DHT22;39986;50.770;0.266;2022-11-27T10:26:18;13.20;99.90
54082;DHT22;39986;50.770;0.266;2022-11-27T10:28:58;13.20;99.90
54082;DHT22;39986;50.770;0.266;2022-11-27T10:31:30;13.20;99.90
54082;DHT22;39986;50.770;0.266;2022-11-27T10:33:58;13.20;99.90
54082;DHT22;39986;50.770;0.266;2022-11-27T10:36:35;13.20;99.90
54082;DHT22;39986;50.770;0.266;2022-11-27T10:39:02;13.20;99.90
54082;DHT22;39986;50.770;0.266;2022-11-27T10:41:33;13.20;99.90
54082;DHT22;39986;50.770;0.266;2022-11-27T10:44:48;13.30;99.90
54082;DHT22;39986;50.770;0.266;2022-11-27T10:46:47;13.20;99.90
54082;DHT22;39986;50.770;0.266;2022-11-27T10:49:15;13.30;99.90
54082;DHT22;39986;50.770;0.266;2022-11-27T10:51:40;13.30;99.90
54082;DHT22;39986;50.770;0.266;2022-11-27T10:54:08;13.40;99.90
54082;DHT22;39986;50.770;0.266;2022-11-27T10:56:55;13.40;99.90
54082;DHT22;39986;50.770;0.266;2022-11-27T10:59:32;13.40;99.90
54082;DHT22;39986;50.770;0.266;2022-11-27T11:01:59;13.40;99.90
54082;DHT22;39986;50.770;0.266;2022-11-27T11:04:28;13.50;99.90
54082;DHT22;39986;50.770;0.266;2022-11-27T11:06:54;13.40;99.90
54082;DHT22;39986;50.770;0.266;2022-11-27T11:09:22;13.40;99.90
54082;DHT22;39986;50.770;0.266;2022-11-27T11:11:48;13.50;99.90
54082;DHT22;39986;50.770;0.266;2022-11-27T11:14:32;13.50;99.90
54082;DHT22;39986;50.770;0.266;2022-11-27T11:16:58;13.60;99.90
54082;DHT22;39986;50.770;0.266;2022-11-27T11:21:49;13.60;99.90
54082;DHT22;39986;50.770;0.266;2022-11-27T11:24:19;13.70;99.90
54082;DHT22;39986;50.770;0.266;2022-11-27T11:26:48;13.60;99.90
54082;DHT22;39986;50.770;0.266;2022-11-27T11:31:52;13.60;99.90
54082;DHT22;39986;50.770;0.266;2022-11-27T11:34:22;13.70;99.90
54082;DHT22;39986;50.770;0.266;2022-11-27T11:37:06;13.60;99.90
54082;DHT22;39986;50.770;0.266;2022-11-27T11:39:42;13.60;99.90
54082;DHT22;39986;50.770;0.266;2022-11-27T11:42:09;13.60;99.90
54082;DHT22;39986;50.770;0.266;2022-11-27T11:44:36;13.60;99.90
54082;DHT22;39986;50.770;0.266;2022-11-27T11:47:01;13.60;99.90
54082;DHT22;39986;50.770;0.266;2022-11-27T11:49:27;13.50;99.90
54082;DHT22;39986;50.770;0.266;2022-11-27T11:57:00;13.50;99.90
54082;DHT22;39986;50.770;0.266;2022-11-27T12:15:00;13.50;99.90
54082;DHT22;39986;50.770;0.266;2022-11-27T12:17:44;13.50;99.90
54082;DHT22;39986;50.770;0.266;2022-11-27T12:20:20;13.50;99.90
54082;DHT22;39986;50.770;0.266;2022-11-27T12:25:55;13.60;99.90
54082;DHT22;39986;50.770;0.266;2022-11-27T12:41:02;13.50;99.90
54082;DHT22;39986;50.770;0.266;2022-11-27T12:43:34;13.50;99.90
54082;DHT22;39986;50.770;0.266;2022-11-27T12:48:46;13.50;99.90
54082;DHT22;39986;50.770;0.266;2022-11-27T12:51:15;13.60;99.90
54082;DHT22;39986;50.770;0.266;2022-11-27T12:56:25;13.50;99.90
54082;DHT22;39986;50.770;0.266;2022-11-27T12:59:34;13.60;99.90
54082;DHT22;39986;50.770;0.266;2022-11-27T13:01:44;13.50;99.90
54082;DHT22;39986;50.770;0.266;2022-11-27T13:06:42;13.50;99.90
54082;DHT22;39986;50.770;0.266;2022-11-27T13:09:15;13.50;99.90
54082;DHT22;39986;50.770;0.266;2022-11-27T13:11:42;13.50;99.90
54082;DHT22;39986;50.770;0.266;2022-11-27T13:14:17;13.70;99.90
54082;DHT22;39986;50.770;0.266;2022-11-27T13:16:45;13.50;99.90
54082;DHT22;39986;50.770;0.266;2022-11-27T13:22:01;13.50;99.90
54082;DHT22;39986;50.770;0.266;2022-11-27T13:24:27;13.60;99.90
54082;DHT22;39986;50.770;0.266;2022-11-27T13:26:57;13.50;99.90
54082;DHT22;39986;50.770;0.266;2022-11-27T13:31:57;13.40;99.90
54082;DHT22;39986;50.770;0.266;2022-11-27T13:34:24;13.40;99.90
54082;DHT22;39986;50.770;0.266;2022-11-27T13:36:58;13.50;99.90
54082;DHT22;39986;50.770;0.266;2022-11-27T13:39:29;13.30;99.90
54082;DHT22;39986;50.770;0.266;2022-11-27T13:41:59;13.30;99.90
54082;DHT22;39986;50.770;0.266;2022-11-27T13:44:26;13.30;99.90
54082;DHT22;39986;50.770;0.266;2022-11-27T13:46:57;13.40;99.90
54082;DHT22;39986;50.770;0.266;2022-11-27T13:49:30;13.30;99.90
54082;DHT22;39986;50.770;0.266;2022-11-27T13:52:03;13.30;99.90
54082;DHT22;39986;50.770;0.266;2022-11-27T13:54:29;13.30;99.90
54082;DHT22;39986;50.770;0.266;2022-11-27T13:56:54;13.20;99.90
54082;DHT22;39986;50.770;0.266;2022-11-27T13:59:21;13.20;99.90
54082;DHT22;39986;50.770;0.266;2022-11-27T14:01:59;13.10;99.90
54082;DHT22;39986;50.770;0.266;2022-11-27T14:04:26;13.20;99.90
54082;DHT22;39986;50.770;0.266;2022-11-27T14:07:10;13.20;99.90
54082;DHT22;39986;50.770;0.266;2022-11-27T14:09:40;13.10;99.90
54082;DHT22;39986;50.770;0.266;2022-11-27T14:12:13;13.10;99.90
54082;DHT22;39986;50.770;0.266;2022-11-27T14:14:41;13.10;99.90
54082;DHT22;39986;50.770;0.266;2022-11-27T14:17:21;13.10;99.90
54082;DHT22;39986;50.770;0.266;2022-11-27T14:19:56;13.10;99.90
54082;DHT22;39986;50.770;0.266;2022-11-27T14:22:31;13.10;99.90
54082;DHT22;39986;50.770;0.266;2022-11-27T14:24:57;13.00;99.90
54082;DHT22;39986;50.770;0.266;2022-11-27T14:27:23;13.10;99.90
54082;DHT22;39986;50.770;0.266;2022-11-27T14:29:49;13.00;99.90
54082;DHT22;39986;50.770;0.266;2022-11-27T14:32:16;13.10;99.90
54082;DHT22;39986;50.770;0.266;2022-11-27T14:34:45;13.10;99.90
54082;DHT22;39986;50.770;0.266;2022-11-27T14:37:20;13.10;99.90
54082;DHT22;39986;50.770;0.266;2022-11-27T14:39:46;13.10;99.90
54082;DHT22;39986;50.770;0.266;2022-11-27T14:42:19;13.20;99.90
54082;DHT22;39986;50.770;0.266;2022-11-27T14:44:47;13.10;99.90
54082;DHT22;39986;50.770;0.266;2022-11-27T14:47:17;13.10;99.90
54082;DHT22;39986;50.770;0.266;2022-11-27T14:49:43;13.00;99.90
54082;DHT22;39986;50.770;0.266;2022-11-27T14:52:11;13.10;99.90
54082;DHT22;39986;50.770;0.266;2022-11-27T14:54:38;13.10;99.90
54082;DHT22;39986;50.770;0.266;2022-11-27T14:57:04;13.00;99.90
54082;DHT22;39986;50.770;0.266;2022-11-27T14:59:30;13.00;99.90
54082;DHT22;39986;50.770;0.266;2022-11-27T15:04:33;13.00;99.90
54082;DHT22;39986;50.770;0.266;2022-11-27T15:06:59;13.00;99.90
54082;DHT22;39986;50.770;0.266;2022-11-27T15:09:26;13.00;99.90
54082;DHT22;39986;50.770;0.266;2022-11-27T15:11:55;13.00;99.90
54082;DHT22;39986;50.770;0.266;2022-11-27T15:14:23;11.90;99.90
54082;DHT22;39986;50.770;0.266;2022-11-27T15:16:49;12.90;99.90
54082;DHT22;39986;50.770;0.266;2022-11-27T15:19:29;13.30;99.90
54082;DHT22;39986;50.770;0.266;2022-11-27T15:21:56;12.80;99.90
54082;DHT22;39986;50.770;0.266;2022-11-27T15:24:29;13.00;99.90
54082;DHT22;39986;50.770;0.266;2022-11-27T15:27:05;12.80;99.90
54082;DHT22;39986;50.770;0.266;2022-11-27T15:31:56;12.70;99.90
54082;DHT22;39986;50.770;0.266;2022-11-27T15:34:22;12.90;99.90
54082;DHT22;39986;50.770;0.266;2022-11-27T15:36:49;12.60;99.90
54082;DHT22;39986;50.770;0.266;2022-11-27T15:39:26;12.50;99.90
54082;DHT22;39986;50.770;0.266;2022-11-27T15:41:57;12.50;99.90
54082;DHT22;39986;50.770;0.266;2022-11-27T15:44:23;12.50;99.90
54082;DHT22;39986;50.770;0.266;2022-11-27T15:46:49;12.40;99.90
54082;DHT22;39986;50.770;0.266;2022-11-27T15:49:16;12.40;99.90
54082;DHT22;39986;50.770;0.266;2022-11-27T15:51:44;12.40;99.90
54082;DHT22;39986;50.770;0.266;2022-11-27T15:54:09;12.40;99.90
54082;DHT22;39986;50.770;0.266;2022-11-27T15:56:35;12.30;99.90
54082;DHT22;39986;50.770;0.266;2022-11-27T15:59:00;12.30;99.90
54082;DHT22;39986;50.770;0.266;2022-11-27T16:01:26;12.30;99.90
54082;DHT22;39986;50.770;0.266;2022-11-27T16:03:51;12.30;99.90
54082;DHT22;39986;50.770;0.266;2022-11-27T16:06:17;12.60;99.90
54082;DHT22;39986;50.770;0.266;2022-11-27T16:08:45;12.30;99.90
54082;DHT22;39986;50.770;0.266;2022-11-27T16:11:10;12.20;99.90
54082;DHT22;39986;50.770;0.266;2022-11-27T16:13:39;12.10;99.90
54082;DHT22;39986;50.770;0.266;2022-11-27T16:16:09;12.20;99.90
54082;DHT22;39986;50.770;0.266;2022-11-27T16:18:34;12.10;99.90
54082;DHT22;39986;50.770;0.266;2022-11-27T16:21:02;12.20;99.90
54082;DHT22;39986;50.770;0.266;2022-11-27T16:23:28;12.10;99.90
54082;DHT22;39986;50.770;0.266;2022-11-27T16:25:53;12.00;99.90
54082;DHT22;39986;50.770;0.266;2022-11-27T16:28:19;12.10;99.90
54082;DHT22;39986;50.770;0.266;2022-11-27T16:30:44;12.10;99.90
54082;DHT22;39986;50.770;0.266;2022-11-27T16:33:09;12.00;99.90
54082;DHT22;39986;50.770;0.266;2022-11-27T16:35:35;12.10;99.90
54082;DHT22;39986;50.770;0.266;2022-11-27T16:38:00;12.00;99.90
54082;DHT22;39986;50.770;0.266;2022-11-27T16:40:26;12.00;99.90
54082;DHT22;39986;50.770;0.266;2022-11-27T16:42:52;12.00;99.90
54082;DHT22;39986;50.770;0.266;2022-11-27T16:45:17;12.20;99.90
54082;DHT22;39986;50.770;0.266;2022-11-27T16:47:43;11.90;99.90
54082;DHT22;39986;50.770;0.266;2022-11-27T16:50:08;12.00;99.90
54082;DHT22;39986;50.770;0.266;2022-11-27T16:52:35;11.90;99.90
54082;DHT22;39986;50.770;0.266;2022-11-27T16:55:00;11.90;99.90
54082;DHT22;39986;50.770;0.266;2022-11-27T16:57:26;12.00;99.90
54082;DHT22;39986;50.770;0.266;2022-11-27T16:59:52;12.00;99.90
54082;DHT22;39986;50.770;0.266;2022-11-27T17:02:17;12.10;99.90
54082;DHT22;39986;50.770;0.266;2022-11-27T17:04:43;12.10;99.90
54082;DHT22;39986;50.770;0.266;2022-11-27T17:07:09;12.10;99.90
54082;DHT22;39986;50.770;0.266;2022-11-27T17:09:35;12.00;99.90
54082;DHT22;39986;50.770;0.266;2022-11-27T17:12:01;12.10;99.90
54082;DHT22;39986;50.770;0.266;2022-11-27T17:14:27;12.20;99.90
54082;DHT22;39986;50.770;0.266;2022-11-27T17:16:55;12.20;99.90
54082;DHT22;39986;50.770;0.266;2022-11-27T17:19:20;12.90;99.90